Tiempo atmosférico en la estación meteorológica de Cedrillas, Teruel (1380 m.)



Fecha
DESCASC
Temp. máxima en grados centígrados (hora)
DESCASC
Temp. mínima en grados centígrados (hora)
DESCASC
Temp. media en grados centígrados
DESCASC
Racha de viento máxima en m/sg (hora)
DESCASC
Velocidad máxima media en intervalos de 10 minutos(hora)
DESCASC
Precipitaciones diarias en mm
DESCASC
Precipitaciones de 00:00 a 06:00 en mm
DESCASC
Precipitaciones de 06:00 a 12:00 en mm
DESCASC
Precipitaciones de 12:00 a 18:00 en mm
DESCASC
Precipitaciones de 18:00 a 24:00 en mm
DESCASC
23-09-2019 19.9 (17:10) 5.6 (00:00) 12.7 6.39 (17:20) 3.89 (00:10) 0.2 0 0.2 0 0
16-10-2019 17.7 (17:40) 0.8 (00:00) 9.3 6.39 (15:00) 3.89 (20:10) 0 0 0 0 0
26-09-2019 23.6 (17:20) 7.5 (00:00) 15.6 6.67 (18:20) 3.89 (17:00) 0 0 0 0 0
04-10-2019 23.7 (17:10) 7.4 (00:00) 15.6 6.67 (14:40) 5 (19:10) 0 0 0 0 0
09-10-2019 24 (17:10) 8.8 (00:00) 16.4 6.94 (16:20) 4.72 (16:50) 0 0 0 0 0
27-09-2019 24.2 (17:00) 8.4 (00:00) 16.3 7.22 (15:20) 4.44 (15:20) 0 0 0 0 0
08-10-2019 24.5 (17:00) 8.1 (00:00) 16.3 7.5 (18:20) 5.56 (18:20) 0 0 0 0 0
10-10-2019 18.3 (17:30) 11.1 (00:00) 14.7 7.5 (17:10) 5.28 (17:50) 0 0 0 0 0
17-10-2019 16.7 (16:40) 1.6 (00:00) 9.2 7.78 (13:50) 4.72 (18:00) 0 0 0 0 0
25-09-2019 19.7 (17:40) 10.6 (00:00) 15.2 8.06 (05:00) 5 (05:00) 0 0 0 0 0
30-09-2019 24.9 (16:00) 7.6 (00:00) 16.2 8.06 (16:50) 5 (17:40) 0 0 0 0 0
29-09-2019 25.1 (16:20) 9.7 (00:00) 17.4 8.33 (13:00) 5.28 (14:30) 0 0 0 0 0
05-10-2019 22.7 (17:30) 6.2 (08:20) 14.5 8.33 (15:40) 5 (20:10) 0 0 0 0 0
28-09-2019 22.8 (16:30) 7.4 (00:00) 15.1 8.61 (19:30) 6.11 (19:50) 0 0 0 0 0
18-10-2019 17 (16:30) 7.2 (00:00) 12.1 8.61 (15:40) 5.56 (06:10) 0 0 0 0 0
24-09-2019 23.9 (17:00) 8 (00:00) 15.9 8.89 (14:40) 5.28 (18:30) 0 0 0 0 0
06-10-2019 20.8 (16:50) 6.1 (00:00) 13.4 8.89 (15:50) 5.28 (17:10) 0 0 0 0 0
12-10-2019 19.9 (12:50) 11.5 (00:00) 15.7 9.17 (13:40) 6.67 (19:00) 0 0 0 0 0
13-10-2019 20.8 (15:00) 11.3 (00:00) 16 9.44 (19:30) 6.39 (18:40) 0 0 0 0 0
03-10-2019 21.4 (16:40) 5.1 (00:00) 13.2 10 (17:40) 6.67 (12:50) 0 0 0 0 0
01-10-2019 24.1 (15:50) 7.2 (00:00) 15.7 10 (17:40) 6.11 (17:40) 0 0 0 0 0
21-09-2019 19.2 (16:30) 11 (00:00) 15.1 10.28 (00:10) 7.22 (00:10) 15.6 9.4 6.2 0 0
22-09-2019 19.7 (16:20) 11.7 (00:00) 15.7 10.83 (15:30) 6.94 (15:10) 1.6 0 0 1.6 0
20-09-2019 18.7 (14:20) 11.9 (00:00) 15.3 11.94 (18:00) 7.78 (18:00) 0 0 0 0 0
02-10-2019 15.6 (17:30) 7.6 (00:00) 11.6 13.06 (11:20) 8.61 (09:50) 0 0 0 0 0
19-10-2019 14.3 (13:30) 9.5 (00:00) 11.9 13.33 (16:10) 8.89 (16:10) 0 0 0 0 0
15-10-2019 12.3 (18:00) 2.4 (00:00) 7.4 14.17 (05:00) 10.28 (10:50) 0 0 0 0 0
07-10-2019 20.8 (16:00) 7.6 (00:00) 14.2 14.72 (17:10) 8.61 (13:20) 0 0 0 0 0
14-10-2019 16 (17:20) 8.4 (00:00) 12.2 15 (13:10) 10 (13:00) 4.6 0 0 3.4 1.2

Gráficas

Temp. máximas Temp. mínimas Temp. medias Precipitaciones Rachas de viento máximas Velocidades máximas media en intervalos de 10 minutos

Datos horarios

Fecha y hora oficial Temperatura (ºC) Velocidad del viento (km/h) Dirección del viento Racha (km/h) Dirección de racha Precipitación (mm) Presión (hPa) Tendencia (hPa) Humedad (%)
2019-10-19 23:00:00 10.9 13 Sur 24 Sur 0 -- -- 78
2019-10-19 22:00:00 10.8 12 Sur 26 Sudeste 0 -- -- 77
2019-10-19 21:00:00 11.6 16 Sur 29 Sudeste 0 -- -- 73
2019-10-19 20:00:00 12.2 14 Sur 34 Sur 0 -- -- 72
2019-10-19 19:00:00 13.8 15 Sur 30 Sudoeste 0 -- -- 68
2019-10-19 18:00:00 14 19 Sur 44 Sudoeste 0 -- -- 68
2019-10-19 17:00:00 13.6 27 Sudoeste 48 Sudoeste 0 -- -- 65
2019-10-19 16:00:00 13.4 29 Sudoeste 47 Sudoeste 0 -- -- 68
2019-10-19 15:00:00 13.4 22 Sudoeste 41 Sur 0 -- -- 73
2019-10-19 14:00:00 13.9 22 Sur 41 Sudoeste 0 -- -- 68
2019-10-19 13:00:00 13.8 15 Sur 35 Sur 0 -- -- 70
2019-10-19 12:00:00 12.4 18 Sur 39 Sur 0 -- -- 76
2019-10-19 11:00:00 12.8 21 Sudoeste 34 Sudoeste 0 -- -- 72
2019-10-19 10:00:00 11.5 15 Sur 27 Sur 0 -- -- 80
2019-10-19 09:00:00 9.7 12 Sur 22 Sur 0 -- -- 88
2019-10-19 08:00:00 9.6 3 Norte 25 Sur 0 -- -- 90
2019-10-19 07:00:00 10.5 14 Sur 24 Sur 0 -- -- 88
2019-10-19 06:00:00 10.9 13 Sur 41 Sudoeste 0 -- -- 89
2019-10-19 05:00:00 11.3 19 Sudoeste 30 Sudoeste 0 -- -- 89
2019-10-19 04:00:00 11.2 16 Sur 28 Sur 0 -- -- 86
2019-10-19 03:00:00 11.2 13 Sur 26 Sur 0 -- -- 83
2019-10-19 02:00:00 11.6 14 Sur 20 Sur 0 -- -- 82
2019-10-19 01:00:00 11.8 11 Sur 24 Sur 0 -- -- 80
2019-10-19 00:00:00 11.6 14 Sur 28 Sur 0 -- -- 83
2019-10-18 23:00:00 12.4 16 Sur 26 Sur 0 -- -- 81
2019-10-18 22:00:00 12.7 15 Sur 22 Sur 0 -- -- 81
2019-10-18 21:00:00 12.9 10 Sur 18 Sur 0 -- -- 74
2019-10-18 20:00:00 13.5 13 Sur 20 Sur 0 -- -- 71
2019-10-18 19:00:00 14.6 10 Sur 17 Sur 0 -- -- 69
2019-10-18 18:00:00 15.8 13 Sur 21 Sur 0 -- -- 64
2019-10-18 17:00:00 16.6 18 Sudoeste 27 Sudoeste 0 -- -- 57
2019-10-18 16:00:00 16.2 17 Sudoeste 31 Sudoeste 0 -- -- 60
2019-10-18 15:00:00 15.9 19 Sudoeste 28 Sudoeste 0 -- -- 68
2019-10-18 14:00:00 15.3 12 Sudoeste 28 Sudoeste 0 -- -- 71
2019-10-18 13:00:00 15.3 10 Sudoeste 21 Sudoeste 0 -- -- 74
2019-10-18 12:00:00 14.2 12 Sudoeste 24 Oeste 0 -- -- 78
2019-10-18 11:00:00 12.9 6 Sudeste 18 Sudoeste 0 -- -- 87
2019-10-18 10:00:00 11.9 8 Sur 15 Sur 0 -- -- 91
2019-10-18 09:00:00 11.2 8 Sur 22 Sur 0 -- -- 92
2019-10-18 08:00:00 10.7 15 Sur 23 Sur 0 -- -- 94
2019-10-18 07:00:00 11.2 9 Sudoeste 29 Sudoeste 0 -- -- 89
2019-10-18 06:00:00 10.7 15 Sudoeste 22 Sudoeste 0 -- -- 91
2019-10-18 05:00:00 10.3 12 Sur 21 Sur 0 -- -- 90
2019-10-18 04:00:00 10.4 13 Sur 23 Sur 0 -- -- 90
2019-10-18 03:00:00 9.7 7 Sudeste 13 Sur 0 -- -- 88
2019-10-18 02:00:00 9.5 10 Sur 19 Sur 0 -- -- 91
2019-10-18 01:00:00 7.6 3 Sudoeste 12 Este 0 -- -- 89
2019-10-18 00:00:00 7.5 4 Sudeste 10 Este 0 -- -- 92
2019-10-17 23:00:00 8 6 Sudoeste 9 Sudoeste 0 -- -- 88
2019-10-17 22:00:00 9.1 5 Este 10 Este 0 -- -- 83
2019-10-17 21:00:00 10.4 5 Sur 10 Sudeste 0 -- -- 78
2019-10-17 20:00:00 12.5 5 Sudoeste 9 Oeste 0 -- -- 69
2019-10-17 19:00:00 15.2 6 Oeste 24 Oeste 0 -- -- 60
2019-10-17 18:00:00 16.2 17 Oeste 26 Oeste 0 -- -- 57
2019-10-17 17:00:00 15.8 13 Oeste 26 Noroeste 0 -- -- 57
2019-10-17 16:00:00 16.4 14 Noroeste 21 Noroeste 0 -- -- 51
2019-10-17 15:00:00 16 7 Noroeste 18 Oeste 0 -- -- 51
2019-10-17 14:00:00 15.5 13 Oeste 28 Oeste 0 -- -- 48
2019-10-17 13:00:00 15.5 8 Oeste 18 Sudoeste 0 -- -- 40
2019-10-17 12:00:00 15.4 16 Oeste 23 Oeste 0 -- -- 25
2019-10-17 11:00:00 13.3 7 Sudoeste 13 Sudoeste 0 -- -- 27
2019-10-17 10:00:00 9.7 8 Sudeste 13 Sur 0 -- -- 49
2019-10-17 09:00:00 3.1 4 Este 14 Este 0 -- -- 61
2019-10-17 08:00:00 2.7 5 Sudeste 13 Este 0 -- -- 58
2019-10-17 07:00:00 2 7 Este 16 Este 0 -- -- 65
2019-10-17 06:00:00 2 6 Sudeste 12 Este 0 -- -- 68
2019-10-17 05:00:00 3.2 12 Sudeste 21 Este 0 -- -- 62
2019-10-17 04:00:00 2.7 7 Este 16 Este 0 -- -- 73
2019-10-17 03:00:00 3.7 10 Este 12 Este 0 -- -- 69
2019-10-17 02:00:00 5.2 6 Sudeste 16 Este 0 -- -- 67
2019-10-17 01:00:00 7.2 7 Sudeste 18 Este 0 -- -- 56
2019-10-17 00:00:00 9.2 9 Este 23 Sudoeste 0 -- -- 59
2019-10-16 23:00:00 10.5 13 Sudoeste 19 Sudoeste 0 -- -- 54
2019-10-16 22:00:00 10.4 14 Sur 17 Sur 0 -- -- 60
2019-10-16 21:00:00 11.2 13 Sur 21 Sur 0 -- -- 58
2019-10-16 20:00:00 12.8 14 Sur 18 Sur 0 -- -- 52
2019-10-16 19:00:00 15.8 8 Sudoeste 13 Sudoeste 0 -- -- 41
2019-10-16 18:00:00 17.3 9 Sudoeste 18 Sudoeste 0 -- -- 35
2019-10-16 17:00:00 17.5 8 Sudoeste 17 Oeste 0 -- -- 35
2019-10-16 16:00:00 16.9 10 Sudoeste 20 Oeste 0 -- -- 35
2019-10-16 15:00:00 16 13 Oeste 23 Oeste 0 -- -- 34
2019-10-16 14:00:00 15.2 4 Sudoeste 17 Oeste 0 -- -- 30
2019-10-16 13:00:00 13.7 8 Oeste 18 Noroeste 0 -- -- 33
2019-10-16 12:00:00 12.3 9 Noroeste 18 Oeste 0 -- -- 36
2019-10-16 11:00:00 10.5 5 Sudoeste 10 Nordeste 0 -- -- 50
2019-10-16 10:00:00 6.3 4 Este 6 Este 0 -- -- 78
2019-10-16 09:00:00 2.3 3 Nordeste 9 Este 0 -- -- 83
2019-10-16 08:00:00 1.4 6 Este 8 Este 0 -- -- 86
2019-10-16 07:00:00 1.9 3 Sudeste 10 Sudeste 0 -- -- 88
2019-10-16 06:00:00 2.6 4 Nordeste 9 Sudeste 0 -- -- 87
2019-10-16 05:00:00 2.1 3 Este 9 Sudoeste 0 -- -- 90
2019-10-16 04:00:00 1.9 5 Sudeste 13 Este 0 -- -- 88
2019-10-16 03:00:00 1.7 5 Sudeste 11 Este 0 -- -- 91
2019-10-16 02:00:00 1.5 0 Calma 9 Este 0 -- -- 90
2019-10-16 01:00:00 2.2 5 Este 7 Sudeste 0 -- -- 86
2019-10-16 00:00:00 2.4 4 Este 10 Este 0 -- -- 84
2019-10-15 23:00:00 3 6 Este 12 Este 0 -- -- 82
2019-10-15 22:00:00 3.9 7 Este 12 Este 0 -- -- 78
2019-10-15 21:00:00 5.8 5 Sudeste 15 Este 0 -- -- 68
2019-10-15 20:00:00 8.5 9 Este 12 Este 0 -- -- 59
2019-10-15 19:00:00 11.5 8 Noroeste 17 Norte 0 -- -- 42
2019-10-15 18:00:00 12.3 8 Noroeste 24 Noroeste 0 -- -- 38
2019-10-15 17:00:00 12.1 11 Noroeste 30 Noroeste 0 -- -- 41
2019-10-15 16:00:00 11.2 18 Noroeste 33 Noroeste 0 -- -- 46
2019-10-15 15:00:00 10.4 15 Noroeste 38 Noroeste 0 -- -- 55
2019-10-15 14:00:00 9.4 19 Noroeste 34 Norte 0 -- -- 57
2019-10-15 13:00:00 7.8 19 Noroeste 38 Noroeste 0 -- -- 66
2019-10-15 12:00:00 6.1 28 Noroeste 51 Oeste 0 -- -- 72
2019-10-15 11:00:00 4.6 35 Noroeste 50 Oeste 0 -- -- 78
2019-10-15 10:00:00 4.1 26 Noroeste 41 Noroeste 0 -- -- 81
2019-10-15 09:00:00 3.3 25 Noroeste 44 Noroeste 0 -- -- 83
2019-10-15 08:00:00 3.3 14 Noroeste 35 Noroeste 0 -- -- 83
2019-10-15 07:00:00 3.3 13 Noroeste 31 Oeste 0 -- -- 82
2019-10-15 06:00:00 3.3 23 Noroeste 48 Oeste 0 -- -- 81
2019-10-15 05:00:00 3.7 32 Noroeste 51 Oeste 0 -- -- 81
2019-10-15 04:00:00 4.9 24 Noroeste 36 Oeste 0 -- -- 83
2019-10-15 03:00:00 5.9 20 Noroeste 31 Oeste 0 -- -- 83
2019-10-15 02:00:00 6.1 8 Oeste 20 Oeste 0 -- -- 82
2019-10-15 01:00:00 7.1 15 Oeste 40 Sudoeste 0 -- -- 77
2019-10-15 00:00:00 8.4 12 Sudoeste 36 Oeste 0 -- -- 81
2019-10-14 23:00:00 9.2 25 Oeste 36 Oeste 0.2 -- -- 76
2019-10-14 22:00:00 10.7 9 Sur 32 Sudoeste 0 -- -- 73
2019-10-14 21:00:00 11.9 15 Sudoeste 34 Sudoeste 0 -- -- 75
2019-10-14 20:00:00 12.2 15 Sudoeste 31 Sur 0 -- -- 80
2019-10-14 19:00:00 12.9 17 Sudoeste 44 Sudoeste 1 -- -- 84
2019-10-14 18:00:00 14 31 Sudoeste 52 Sur 0.4 -- -- 78
2019-10-14 17:00:00 15.3 26 Sur 38 Sur 0 -- -- 73
2019-10-14 16:00:00 13.9 20 Sur 43 Sudeste 0 -- -- 80
2019-10-14 15:00:00 13.7 22 Sur 38 Sur 0 -- -- 82
2019-10-14 14:00:00 12 27 Sudeste 54 Sudoeste 1.6 -- -- 81
2019-10-14 13:00:00 11.9 36 Sudoeste 54 Sur 1.4 -- -- 80
2019-10-14 12:00:00 13.4 23 Sudoeste 44 Sudoeste 0 -- -- 84
2019-10-14 11:00:00 12.4 18 Sudeste 27 Sudeste 0 -- -- 91
2019-10-14 10:00:00 12.1 13 Sur 32 Sudeste 0 -- -- 96
2019-10-14 09:00:00 11.5 13 Sudeste 37 Sudoeste 0 -- -- 95
2019-10-14 08:00:00 11.5 22 Sur 30 Sudeste 0 -- -- 97
2019-10-14 07:00:00 11.8 16 Sudeste 28 Sudeste 0 -- -- 98
2019-10-14 06:00:00 12.2 15 Sur 31 Sudeste 0 -- -- 98
2019-10-14 05:00:00 12.4 20 Sudeste 27 Sudeste 0 -- -- 99
2019-10-14 04:00:00 12.2 13 Sur 21 Sur 0 -- -- 97
2019-10-14 03:00:00 12.8 13 Sur 30 Sur 0 -- -- 94
2019-10-14 02:00:00 13 18 Sur 27 Sudeste 0 -- -- 94
2019-10-14 01:00:00 13.1 14 Sur 26 Sudeste 0 -- -- 94
2019-10-14 00:00:00 13.6 17 Sudeste 28 Sur 0 -- -- 95
2019-10-13 23:00:00 13.8 19 Sudeste 30 Sudeste 0 -- -- 94
2019-10-13 22:00:00 14.3 20 Sur 31 Sur 0 -- -- 92
2019-10-13 21:00:00 14.8 14 Sudeste 25 Sur 0 -- -- 91
2019-10-13 20:00:00 15.9 18 Sudeste 34 Sudeste 0 -- -- 87
2019-10-13 19:00:00 17.8 20 Sudeste 33 Sudeste 0 -- -- 75
2019-10-13 18:00:00 18.7 17 Sudeste 33 Sudeste 0 -- -- 67
2019-10-13 17:00:00 19.6 14 Sur 30 Sur 0 -- -- 59
2019-10-13 16:00:00 20.4 18 Sur 34 Sudeste 0 -- -- 55
2019-10-13 15:00:00 20.8 16 Sur 30 Sudeste 0 -- -- 57
2019-10-13 14:00:00 19.7 17 Sur 28 Sur 0 -- -- 59
2019-10-13 13:00:00 18.9 17 Sur 26 Sur 0 -- -- 64
2019-10-13 12:00:00 17.3 16 Sur 26 Sur 0 -- -- 72
2019-10-13 11:00:00 15.2 16 Sur 25 Sur 0 -- -- 80
2019-10-13 10:00:00 13.4 16 Sur 22 Sur 0 -- -- 87
2019-10-13 09:00:00 11.9 15 Sur 30 Sudeste 0 -- -- 93
2019-10-13 08:00:00 11.8 18 Sudeste 27 Sur 0 -- -- 93
2019-10-13 07:00:00 11.7 17 Sudeste 33 Sudeste 0 -- -- 95
2019-10-13 06:00:00 11.7 20 Sudeste 27 Sur 0 -- -- 96
2019-10-13 05:00:00 11.3 5 Sur 12 Sur 0 -- -- 98
2019-10-13 04:00:00 11.3 5 Sudoeste 10 Sudeste 0 -- -- 97
2019-10-13 03:00:00 12.3 3 Sur 18 Sur 0 -- -- 93
2019-10-13 02:00:00 12.6 11 Sudoeste 27 Sur 0 -- -- 94
2019-10-13 01:00:00 12.9 17 Sur 26 Sur 0 -- -- 91
2019-10-13 00:00:00 13.4 18 Sur 26 Sudeste 0 -- -- 91
2019-10-12 23:00:00 13.9 17 Sudeste 27 Sudeste 0 -- -- 90
2019-10-12 22:00:00 14.1 14 Sudeste 23 Sur 0 -- -- 90
2019-10-12 21:00:00 14.3 14 Sudeste 31 Sudeste 0 -- -- 89
2019-10-12 20:00:00 14.8 23 Sur 32 Sur 0 -- -- 87
2019-10-12 19:00:00 15.9 24 Sur 33 Sur 0 -- -- 81
2019-10-12 18:00:00 17 23 Sudeste 32 Sur 0 -- -- 76
2019-10-12 17:00:00 17.6 16 Sudeste 29 Sur 0 -- -- 71
2019-10-12 16:00:00 18.7 18 Sudeste 32 Sudeste 0 -- -- 64
2019-10-12 15:00:00 18.3 18 Sur 28 Sudeste 0 -- -- 61
2019-10-12 14:00:00 19 17 Sur 33 Sur 0 -- -- 61
2019-10-12 13:00:00 19.5 19 Sudeste 31 Sudeste 0 -- -- 52
2019-10-12 12:00:00 18.5 19 Sudeste 27 Sudeste 0 -- -- 51
2019-10-12 11:00:00 17.5 9 Sur 17 Sudeste 0 -- -- 51
2019-10-12 10:00:00 14 10 Sur 14 Sur 0 -- -- 68
2019-10-12 09:00:00 11.9 12 Sur 17 Sur 0 -- -- 78
2019-10-12 08:00:00 11.6 4 Sudoeste 18 Sur 0 -- -- 89
2019-10-12 07:00:00 12.3 11 Sur 17 Sur 0 -- -- 91
2019-10-12 06:00:00 12.2 8 Sudoeste 24 Sudeste 0 -- -- 97
2019-10-12 05:00:00 12.4 21 Sur 29 Sur 0 -- -- 97
2019-10-12 04:00:00 12.6 15 Sur 24 Sur 0 -- -- 98
2019-10-12 03:00:00 12.7 19 Sur 28 Sur 0 -- -- 97
2019-10-12 02:00:00 13 16 Sur 23 Sur 0 -- -- 94
2019-10-12 01:00:00 13.1 17 Sur 28 Sur 0 -- -- 95
2019-10-12 00:00:00 13.6 15 Sur 27 Sur 0 -- -- 96
2019-10-11 23:00:00 14.2 15 Sur 25 Sur 0 -- -- 94
2019-10-11 22:00:00 14.4 16 Sur 31 Sur 0 -- -- 95
2019-10-11 21:00:00 14.6 21 Sur 29 Sur 0 -- -- 93
2019-10-11 20:00:00 15.8 16 Sur 28 Sur 0 -- -- 79
2019-10-11 19:00:00 18 16 Sur 27 Sur 0 -- -- 69
2019-10-11 18:00:00 20.4 19 Sur 29 Sur 0 -- -- 59
2019-10-11 17:00:00 20.6 21 Sur 32 Sudeste 0 -- -- 59
2019-10-11 16:00:00 20.9 18 Sur 27 Sudeste 0 -- -- 59
2019-10-11 15:00:00 21.4 16 Sur 26 Sur 0 -- -- 54
2019-10-11 14:00:00 20.6 19 Sur 26 Sur 0 -- -- 56
2019-10-11 13:00:00 21.2 15 Sur 23 Sur 0 -- -- 56
2019-10-11 12:00:00 19.6 12 Sur 17 Sur 0 -- -- 59
2019-10-11 11:00:00 16.7 12 Sur 16 Sur 0 -- -- 77
2019-10-11 10:00:00 11.9 0 Calma 5 Este 0 -- -- 93
2019-10-11 09:00:00 8.4 0 Calma 5 Este 0 -- -- 99
2019-10-11 08:00:00 7.3 0 Calma 2 Este 0 -- -- 100
2019-10-11 07:00:00 7.7 0 Calma 3 Oeste 0 -- -- 100
2019-10-11 06:00:00 8.2 2 Sudoeste 7 Este 0 -- -- 100
2019-10-11 05:00:00 8.6 0 Calma 5 Este 0 -- -- 100
2019-10-11 04:00:00 8.9 2 Nordeste 12 Sur 0 -- -- 99
2019-10-11 03:00:00 9.8 6 Sudeste 12 Sudeste 0 -- -- 99
2019-10-11 02:00:00 11.1 6 Sur 17 Sur 0 -- -- 99
2019-10-11 01:00:00 11.2 10 Sur 14 Sur 0 -- -- 99
2019-10-11 00:00:00 12.2 3 Sur 13 Sur 0 -- -- 96
2019-10-10 23:00:00 12.6 9 Sudeste 20 Sur 0 -- -- 95
2019-10-10 22:00:00 12.9 13 Sur 20 Sur 0 -- -- 95
2019-10-10 21:00:00 13.3 15 Sur 25 Sur 0 -- -- 94
2019-10-10 20:00:00 13.8 15 Sur 23 Sur 0 -- -- 92
2019-10-10 19:00:00 15.1 16 Sudeste 23 Sudeste 0 -- -- 86
2019-10-10 18:00:00 16.5 18 Sudeste 27 Sudeste 0 -- -- 79
2019-10-10 17:00:00 17.4 16 Sudeste 25 Sur 0 -- -- 75
2019-10-10 16:00:00 18 15 Sur 25 Sudeste 0 -- -- 71
2019-10-10 15:00:00 16.9 15 Sudeste 25 Sur 0 -- -- 78
2019-10-10 14:00:00 15.1 16 Sur 24 Sur 0 -- -- 89
2019-10-10 13:00:00 14.1 13 Sur 21 Sur 0 -- -- 95
2019-10-10 12:00:00 14.2 12 Sur 21 Sur 0 -- -- 93
2019-10-10 11:00:00 13.2 16 Sur 22 Sur 0 -- -- 99
2019-10-10 10:00:00 12.8 12 Sur 20 Sur 0 -- -- 100
2019-10-10 09:00:00 12.4 8 Sur 17 Sudoeste 0 -- -- 99
2019-10-10 08:00:00 12.2 9 Sudoeste 23 Sur 0 -- -- 99
2019-10-10 07:00:00 12.3 12 Sur 21 Sur 0 -- -- 98
2019-10-10 06:00:00 12.6 12 Sur 17 Sur 0 -- -- 97
2019-10-10 05:00:00 12.1 5 Sudeste 13 Sur 0 -- -- 94
2019-10-10 04:00:00 11.4 4 Norte 6 Norte 0 -- -- 77
2019-10-10 03:00:00 11.2 3 Norte 9 Nordeste 0 -- -- 75
2019-10-10 02:00:00 11.4 4 Norte 9 Norte 0 -- -- 76
2019-10-10 01:00:00 11.4 4 Norte 14 Norte 0 -- -- 79
2019-10-10 00:00:00 12.3 8 Norte 16 Norte 0 -- -- 78
2019-10-09 23:00:00 13.3 10 Norte 16 Norte 0 -- -- 77
2019-10-09 22:00:00 14.4 8 Noroeste 15 Noroeste 0 -- -- 73
2019-10-09 21:00:00 15.1 8 Norte 16 Norte 0 -- -- 70
2019-10-09 20:00:00 16.5 10 Norte 19 Norte 0 -- -- 67
2019-10-09 19:00:00 18.2 12 Norte 23 Nordeste 0 -- -- 62
2019-10-09 18:00:00 19.9 13 Nordeste 23 Norte 0 -- -- 57
2019-10-09 17:00:00 23.7 15 Oeste 25 Sudoeste 0 -- -- 37
2019-10-09 16:00:00 23.8 12 Sudoeste 23 Oeste 0 -- -- 36
2019-10-09 15:00:00 23.3 11 Oeste 21 Oeste 0 -- -- 40
2019-10-09 14:00:00 22.5 9 Noroeste 22 Oeste 0 -- -- 44
2019-10-09 13:00:00 22.2 9 Oeste 16 Oeste 0 -- -- 42
2019-10-09 12:00:00 20.8 5 Sur 14 Norte 0 -- -- 49
2019-10-09 11:00:00 18.8 10 Norte 16 Norte 0 -- -- 57
2019-10-09 10:00:00 14.1 3 Este 8 Nordeste 0 -- -- 72
2019-10-09 09:00:00 10.8 8 Sudeste 11 Este 0 -- -- 82
2019-10-09 08:00:00 9.5 2 Este 6 Este 0 -- -- 85
2019-10-09 07:00:00 8.8 4 Nordeste 9 Sudeste 0 -- -- 87
2019-10-09 06:00:00 9.8 7 Este 9 Este 0 -- -- 85
2019-10-09 05:00:00 9.8 3 Este 6 Este 0 -- -- 88
2019-10-09 04:00:00 9.8 3 Nordeste 9 Este 0 -- -- 90
2019-10-09 03:00:00 10.4 3 Este 11 Este 0 -- -- 89
2019-10-09 02:00:00 11.2 9 Este 12 Este 0 -- -- 86
2019-10-09 01:00:00 12.9 9 Sudeste 12 Este 0 -- -- 82
2019-10-09 00:00:00 14.1 7 Sudeste 13 Este 0 -- -- 78
2019-10-08 23:00:00 15.5 8 Sur 17 Sur 0 -- -- 75
2019-10-08 22:00:00 15.2 13 Sur 22 Sur 0 -- -- 78
2019-10-08 21:00:00 16.2 15 Sur 23 Sur 0 -- -- 72
2019-10-08 20:00:00 17.7 16 Sur 26 Sur 0 -- -- 65
2019-10-08 19:00:00 20.6 16 Sur 27 Sur 0 -- -- 55
2019-10-08 18:00:00 24.2 8 Oeste 21 Sur 0 -- -- 44
2019-10-08 17:00:00 24.5 8 Sudoeste 17 Oeste 0 -- -- 40
2019-10-08 16:00:00 24 5 Sudoeste 21 Sudoeste 0 -- -- 41
2019-10-08 15:00:00 23.6 9 Sur 18 Sur 0 -- -- 44
2019-10-08 14:00:00 22.7 7 Sur 18 Oeste 0 -- -- 49
2019-10-08 13:00:00 21.1 4 Este 14 Norte 0 -- -- 53
2019-10-08 12:00:00 19.7 5 Norte 14 Norte 0 -- -- 57
2019-10-08 11:00:00 17 4 Noroeste 7 Oeste 0 -- -- 65
2019-10-08 10:00:00 13.8 0 Calma 5 Sudoeste 0 -- -- 71
2019-10-08 09:00:00 10 3 Este 7 Nordeste 0 -- -- 80
2019-10-08 08:00:00 8.1 5 Oeste 11 Este 0 -- -- 84
2019-10-08 07:00:00 8.8 4 Nordeste 7 Norte 0 -- -- 80
2019-10-08 06:00:00 10.2 4 Nordeste 10 Norte 0 -- -- 75
2019-10-08 05:00:00 10 3 Noroeste 17 Sudoeste 0 -- -- 75
2019-10-08 04:00:00 12.2 8 Nordeste 24 Nordeste 0 -- -- 68
2019-10-08 03:00:00 11.6 10 Norte 18 Nordeste 0 -- -- 66
2019-10-08 02:00:00 11.4 6 Norte 13 Norte 0 -- -- 64
2019-10-08 01:00:00 11.6 8 Nordeste 19 Este 0 -- -- 72
2019-10-08 00:00:00 13.1 8 Norte 18 Noroeste 0 -- -- 67
2019-10-07 23:00:00 13.8 12 Noroeste 19 Noroeste 0 -- -- 70
2019-10-07 22:00:00 14.6 14 Norte 30 Norte 0 -- -- 66
2019-10-07 21:00:00 15.6 18 Norte 37 Norte 0 -- -- 61
2019-10-07 20:00:00 17.7 21 Noroeste 43 Noroeste 0 -- -- 51
2019-10-07 19:00:00 19.3 27 Noroeste 44 Noroeste 0 -- -- 47
2019-10-07 18:00:00 20.4 24 Noroeste 53 Noroeste 0 -- -- 44
2019-10-07 17:00:00 19.6 27 Noroeste 46 Oeste 0 -- -- 41
2019-10-07 16:00:00 20.8 23 Noroeste 50 Noroeste 0 -- -- 37
2019-10-07 15:00:00 18.3 24 Noroeste 43 Noroeste 0 -- -- 38
2019-10-07 14:00:00 19.2 26 Noroeste 49 Noroeste 0 -- -- 36
2019-10-07 13:00:00 17.6 30 Noroeste 44 Noroeste 0 -- -- 34
2019-10-07 12:00:00 15.7 25 Norte 38 Noroeste 0 -- -- 38
2019-10-07 11:00:00 13.6 23 Norte 34 Norte 0 -- -- 42
2019-10-07 10:00:00 11.6 18 Norte 48 Noroeste 0 -- -- 51
2019-10-07 09:00:00 8.7 24 Noroeste 41 Noroeste 0 -- -- 78
2019-10-07 08:00:00 8.4 18 Noroeste 38 Noroeste 0 -- -- 90
2019-10-07 07:00:00 8.6 22 Noroeste 38 Noroeste 0 -- -- 88
2019-10-07 06:00:00 9 17 Noroeste 34 Norte 0 -- -- 90
2019-10-07 05:00:00 9.3 13 Noroeste 20 Noroeste 0 -- -- 93
2019-10-07 04:00:00 8.7 5 Nordeste 9 Nordeste 0 -- -- 97
2019-10-07 03:00:00 7.6 6 Norte 10 Norte 0 -- -- 95
2019-10-07 02:00:00 8.2 4 Norte 12 Norte 0 -- -- 92
2019-10-07 01:00:00 9.1 8 Norte 21 Norte 0 -- -- 90
2019-10-07 00:00:00 10.4 10 Norte 15 Norte 0 -- -- 88
2019-10-06 23:00:00 11 6 Norte 18 Norte 0 -- -- 85
2019-10-06 22:00:00 12 13 Norte 22 Norte 0 -- -- 81
2019-10-06 21:00:00 15 8 Noroeste 17 Norte 0 -- -- 56
2019-10-06 20:00:00 16.7 8 Norte 21 Noroeste 0 -- -- 53
2019-10-06 19:00:00 19 13 Noroeste 23 Oeste 0 -- -- 46
2019-10-06 18:00:00 20.7 14 Noroeste 30 Noroeste 0 -- -- 36
2019-10-06 17:00:00 20.6 19 Noroeste 29 Noroeste 0 -- -- 36
2019-10-06 16:00:00 20.2 18 Noroeste 32 Noroeste 0 -- -- 36
2019-10-06 15:00:00 19.5 14 Oeste 24 Oeste 0 -- -- 42
2019-10-06 14:00:00 19.8 11 Noroeste 22 Norte 0 -- -- 43
2019-10-06 13:00:00 17.9 8 Noroeste 26 Noroeste 0 -- -- 53
2019-10-06 12:00:00 17.3 13 Noroeste 22 Noroeste 0 -- -- 53
2019-10-06 11:00:00 16 12 Noroeste 23 Noroeste 0 -- -- 61
2019-10-06 10:00:00 12.9 5 Este 9 Este 0 -- -- 79
2019-10-06 09:00:00 8.2 6 Este 9 Este 0 -- -- 90
2019-10-06 08:00:00 6.1 5 Este 13 Este 0 -- -- 92
2019-10-06 07:00:00 7.7 6 Sudeste 12 Sudeste 0 -- -- 88
2019-10-06 06:00:00 7.4 4 Este 12 Este 0 -- -- 88
2019-10-06 05:00:00 6.9 5 Este 12 Este 0 -- -- 93
2019-10-06 04:00:00 7.6 5 Este 8 Este 0 -- -- 91
2019-10-06 03:00:00 8.1 6 Este 10 Este 0 -- -- 91
2019-10-06 02:00:00 9.2 4 Este 5 Este 0 -- -- 93
2019-10-06 01:00:00 9.6 4 Este 6 Este 0 -- -- 89
2019-10-06 00:00:00 10.6 0 Calma 11 Este 0 -- -- 89
2019-10-05 23:00:00 11.7 8 Este 10 Este 0 -- -- 86
2019-10-05 22:00:00 14 5 Este 10 Sur 0 -- -- 82
2019-10-05 21:00:00 15.9 9 Sur 23 Sur 0 -- -- 79
2019-10-05 20:00:00 17.8 14 Sur 22 Sur 0 -- -- 69
2019-10-05 19:00:00 21.5 10 Oeste 21 Oeste 0 -- -- 38
2019-10-05 18:00:00 22.3 15 Oeste 22 Oeste 0 -- -- 36
2019-10-05 17:00:00 22.6 9 Oeste 22 Oeste 0 -- -- 37
2019-10-05 16:00:00 22.5 12 Noroeste 30 Oeste 0 -- -- 36
2019-10-05 15:00:00 21.6 14 Oeste 22 Oeste 0 -- -- 37
2019-10-05 14:00:00 21 6 Noroeste 19 Oeste 0 -- -- 39
2019-10-05 13:00:00 19.5 12 Oeste 22 Oeste 0 -- -- 44
2019-10-05 12:00:00 18.9 13 Oeste 21 Oeste 0 -- -- 44
2019-10-05 11:00:00 17.8 2 Sudeste 10 Nordeste 0 -- -- 57
2019-10-05 10:00:00 12.8 3 Nordeste 5 Nordeste 0 -- -- 78
2019-10-05 09:00:00 8.7 2 Este 5 Sudeste 0 -- -- 89
2019-10-05 08:00:00 6.5 6 Este 8 Este 0 -- -- 93
2019-10-05 07:00:00 6.5 3 Este 8 Este 0 -- -- 91
2019-10-05 06:00:00 7.1 5 Este 12 Este 0 -- -- 88
2019-10-05 05:00:00 8.1 4 Este 8 Este 0 -- -- 88
2019-10-05 04:00:00 7.9 4 Este 7 Nordeste 0 -- -- 88
2019-10-05 03:00:00 8.5 7 Nordeste 9 Nordeste 0 -- -- 84
2019-10-05 02:00:00 9.6 6 Este 8 Nordeste 0 -- -- 76
2019-10-05 01:00:00 11 4 Nordeste 10 Nordeste 0 -- -- 71
2019-10-05 00:00:00 11.2 5 Nordeste 12 Este 0 -- -- 69
2019-10-04 23:00:00 12.5 7 Este 10 Este 0 -- -- 67
2019-10-04 22:00:00 14.7 5 Oeste 20 Sur 0 -- -- 61
2019-10-04 21:00:00 16.2 14 Sur 19 Sur 0 -- -- 56
2019-10-04 20:00:00 17.4 14 Sur 23 Sur 0 -- -- 49
2019-10-04 19:00:00 21.8 15 Sudoeste 24 Sudoeste 0 -- -- 32
2019-10-04 18:00:00 23.3 15 Sudoeste 23 Sudoeste 0 -- -- 28
2019-10-04 17:00:00 23.6 10 Oeste 21 Sudoeste 0 -- -- 27
2019-10-04 16:00:00 23.6 6 Oeste 22 Sudoeste 0 -- -- 25
2019-10-04 15:00:00 22.7 12 Sudoeste 24 Oeste 0 -- -- 26
2019-10-04 14:00:00 21.8 15 Oeste 21 Sudoeste 0 -- -- 35
2019-10-04 13:00:00 21.7 6 Sudoeste 15 Sur 0 -- -- 37
2019-10-04 12:00:00 20.1 4 Nordeste 10 Nordeste 0 -- -- 37
2019-10-04 11:00:00 17.6 7 Norte 11 Norte 0 -- -- 44
2019-10-04 10:00:00 13.9 4 Nordeste 8 Nordeste 0 -- -- 59
2019-10-04 09:00:00 10.6 6 Este 8 Este 0 -- -- 70
2019-10-04 08:00:00 8.5 6 Nordeste 10 Nordeste 0 -- -- 73
2019-10-04 07:00:00 7.8 8 Nordeste 12 Nordeste 0 -- -- 75
2019-10-04 06:00:00 7.8 4 Norte 8 Nordeste 0 -- -- 74
2019-10-04 05:00:00 7.8 5 Nordeste 12 Norte 0 -- -- 73
2019-10-04 04:00:00 8.4 5 Oeste 10 Nordeste 0 -- -- 71
2019-10-04 03:00:00 9.5 6 Este 13 Nordeste 0 -- -- 66
2019-10-04 02:00:00 10.7 6 Norte 18 Norte 0 -- -- 60
2019-10-04 01:00:00 12.1 10 Noroeste 19 Noroeste 0 -- -- 56
2019-10-04 00:00:00 11.9 8 Norte 13 Nordeste 0 -- -- 53
2019-10-03 23:00:00 10.8 7 Nordeste 12 Este 0 -- -- 47
2019-10-03 22:00:00 12.1 6 Nordeste 19 Noroeste 0 -- -- 40
2019-10-03 21:00:00 15.5 10 Norte 33 Noroeste 0 -- -- 30
2019-10-03 20:00:00 17.2 16 Noroeste 23 Noroeste 0 -- -- 25
2019-10-03 19:00:00 20.3 15 Noroeste 28 Norte 0 -- -- 22
2019-10-03 18:00:00 21.1 17 Noroeste 36 Oeste 0 -- -- 18
2019-10-03 17:00:00 21.4 17 Noroeste 29 Oeste 0 -- -- 17
2019-10-03 16:00:00 20.8 18 Noroeste 32 Noroeste 0 -- -- 15
2019-10-03 15:00:00 19.7 14 Noroeste 34 Noroeste 0 -- -- 24
2019-10-03 14:00:00 17.9 21 Noroeste 31 Norte 0 -- -- 33
2019-10-03 13:00:00 15.8 22 Noroeste 32 Noroeste 0 -- -- 41
2019-10-03 12:00:00 13.3 16 Nordeste 23 Nordeste 0 -- -- 55
2019-10-03 11:00:00 11.1 9 Norte 15 Nordeste 0 -- -- 65
2019-10-03 10:00:00 8.3 9 Nordeste 15 Nordeste 0 -- -- 80
2019-10-03 09:00:00 6.2 5 Nordeste 10 Nordeste 0 -- -- 90
2019-10-03 08:00:00 5.1 8 Nordeste 15 Nordeste 0 -- -- 93
2019-10-03 07:00:00 5.6 9 Nordeste 15 Nordeste 0 -- -- 95
2019-10-03 06:00:00 5.8 10 Nordeste 16 Nordeste 0 -- -- 94
2019-10-03 05:00:00 5.6 11 Nordeste 19 Nordeste 0 -- -- 95
2019-10-03 04:00:00 6.3 11 Norte 23 Nordeste 0 -- -- 93
2019-10-03 03:00:00 6.8 17 Nordeste 26 Nordeste 0 -- -- 92
2019-10-03 02:00:00 7 7 Nordeste 24 Nordeste 0 -- -- 92
2019-10-03 01:00:00 7.5 16 Nordeste 33 Norte 0 -- -- 90
2019-10-03 00:00:00 7.6 17 Norte 24 Norte 0 -- -- 87
2019-10-02 23:00:00 8.5 17 Norte 30 Norte 0 -- -- 82
2019-10-02 22:00:00 9.5 18 Norte 30 Norte 0 -- -- 78
2019-10-02 21:00:00 10.7 14 Norte 24 Norte 0 -- -- 68
2019-10-02 20:00:00 12.4 12 Norte 39 Noroeste 0 -- -- 62
2019-10-02 19:00:00 14.5 19 Noroeste 42 Noroeste 0 -- -- 52
2019-10-02 18:00:00 15.6 23 Noroeste 45 Noroeste 0 -- -- 48
2019-10-02 17:00:00 15.5 27 Noroeste 46 Noroeste 0 -- -- 50
2019-10-02 16:00:00 14.9 22 Noroeste 41 Noroeste 0 -- -- 50
2019-10-02 15:00:00 15 24 Noroeste 42 Norte 0 -- -- 51
2019-10-02 14:00:00 14.6 28 Noroeste 44 Oeste 0 -- -- 51
2019-10-02 13:00:00 14 24 Norte 43 Noroeste 0 -- -- 55
2019-10-02 12:00:00 12.9 28 Noroeste 47 Noroeste 0 -- -- 56
2019-10-02 11:00:00 11.7 23 Noroeste 38 Norte 0 -- -- 69
2019-10-02 10:00:00 10.4 24 Noroeste 46 Noroeste 0 -- -- 80
2019-10-02 09:00:00 9.3 23 Noroeste 35 Noroeste 0 -- -- 86
2019-10-02 08:00:00 9.1 23 Noroeste 37 Noroeste 0 -- -- 84
2019-10-02 07:00:00 9.4 17 Norte 37 Norte 0 -- -- 83
2019-10-02 06:00:00 10.1 13 Norte 21 Norte 0 -- -- 75
2019-10-02 05:00:00 10.7 9 Norte 19 Nordeste 0 -- -- 71
2019-10-02 04:00:00 11.1 9 Norte 19 Norte 0 -- -- 71
2019-10-02 03:00:00 11.6 9 Norte 22 Noroeste 0 -- -- 70
2019-10-02 02:00:00 12.1 11 Nordeste 20 Nordeste 0 -- -- 71
2019-10-02 01:00:00 12.5 8 Nordeste 14 Norte 0 -- -- 68
2019-10-02 00:00:00 13.4 8 Norte 14 Nordeste 0 -- -- 66
2019-10-01 23:00:00 14.3 7 Norte 15 Norte 0 -- -- 61
2019-10-01 22:00:00 15.5 10 Noroeste 30 Noroeste 0 -- -- 56
2019-10-01 21:00:00 17.3 17 Noroeste 29 Noroeste 0 -- -- 50
2019-10-01 20:00:00 19 16 Noroeste 27 Noroeste 0 -- -- 48
2019-10-01 19:00:00 21.4 19 Noroeste 33 Noroeste 0 -- -- 35
2019-10-01 18:00:00 22.7 18 Noroeste 36 Oeste 0 -- -- 28
2019-10-01 17:00:00 22.8 13 Oeste 33 Noroeste 0 -- -- 27
2019-10-01 16:00:00 23.8 14 Oeste 30 Noroeste 0 -- -- 27
2019-10-01 15:00:00 23.2 17 Oeste 31 Oeste 0 -- -- 28
2019-10-01 14:00:00 22.8 9 Noroeste 27 Noroeste 0 -- -- 32
2019-10-01 13:00:00 21.8 15 Noroeste 27 Oeste 0 -- -- 33
2019-10-01 12:00:00 21 13 Oeste 22 Oeste 0 -- -- 34
2019-10-01 11:00:00 18.2 2 Norte 8 Este 0 -- -- 48
2019-10-01 10:00:00 13.8 2 Este 6 Este 0 -- -- 70
2019-10-01 09:00:00 9.2 2 Nordeste 8 Este 0 -- -- 79
2019-10-01 08:00:00 7.8 6 Este 9 Este 0 -- -- 79
2019-10-01 07:00:00 7.8 3 Sudeste 9 Este 0 -- -- 82
2019-10-01 06:00:00 8.5 0 Calma 9 Este 0 -- -- 81
2019-10-01 05:00:00 8.6 3 Nordeste 12 Este 0 -- -- 83
2019-10-01 04:00:00 9.2 8 Este 10 Este 0 -- -- 81
2019-10-01 03:00:00 10.5 4 Sudeste 10 Sudeste 0 -- -- 80
2019-10-01 02:00:00 11.7 4 Sudeste 10 Este 0 -- -- 75
2019-10-01 01:00:00 12.6 3 Sudoeste 12 Este 0 -- -- 91
2019-10-01 00:00:00 13.6 10 Sudeste 13 Sudeste 0 -- -- 82
2019-09-30 23:00:00 15.5 4 Sudoeste 14 Sur 0 -- -- 96
2019-09-30 22:00:00 15.9 11 Sur 21 Sur 0 -- -- 93
2019-09-30 21:00:00 16.6 16 Sur 22 Sur 0 -- -- 84
2019-09-30 20:00:00 18.5 12 Sur 24 Sur 0 -- -- 69
2019-09-30 19:00:00 21.7 14 Sur 26 Sur 0 -- -- 54
2019-09-30 18:00:00 23.6 14 Sur 26 Sur 0 -- -- 40
2019-09-30 17:00:00 24.2 15 Sur 29 Sur 0 -- -- 34
2019-09-30 16:00:00 24.9 12 Sur 22 Sur 0 -- -- 31
2019-09-30 15:00:00 24.4 12 Sur 26 Sudeste 0 -- -- 30
2019-09-30 14:00:00 24 13 Sudeste 23 Sur 0 -- -- 29
2019-09-30 13:00:00 23.2 13 Sur 26 Sur 0 -- -- 29
2019-09-30 12:00:00 22.5 13 Sur 20 Sudeste 0 -- -- 31
2019-09-30 11:00:00 18.8 0 Calma 3 Nordeste 0 -- -- 44
2019-09-30 10:00:00 14.9 3 Nordeste 5 Este 0 -- -- 61
2019-09-30 09:00:00 10.3 3 Nordeste 5 Este 0 -- -- 71
2019-09-30 08:00:00 7.7 3 Nordeste 9 Este 0 -- -- 77
2019-09-30 07:00:00 8 4 Este 9 Este 0 -- -- 74
2019-09-30 06:00:00 8.9 5 Este 6 Este 0 -- -- 71
2019-09-30 05:00:00 9.9 4 Este 9 Este 0 -- -- 66
2019-09-30 04:00:00 9.9 4 Nordeste 5 Nordeste 0 -- -- 69
2019-09-30 03:00:00 10.1 5 Este 8 Este 0 -- -- 70
2019-09-30 02:00:00 10.6 3 Nordeste 13 Este 0 -- -- 67
2019-09-30 01:00:00 11.5 13 Este 15 Este 0 -- -- 62
2019-09-30 00:00:00 12.5 7 Este 12 Este 0 -- -- 57
2019-09-29 23:00:00 13.7 7 Este 14 Sudeste 0 -- -- 54
2019-09-29 22:00:00 15.1 9 Sudeste 14 Este 0 -- -- 50
2019-09-29 21:00:00 17.2 7 Este 13 Este 0 -- -- 47
2019-09-29 20:00:00 21.3 6 Sudoeste 16 Oeste 0 -- -- 36
2019-09-29 19:00:00 24.2 8 Oeste 22 Oeste 0 -- -- 28
2019-09-29 18:00:00 24.6 15 Oeste 24 Oeste 0 -- -- 26
2019-09-29 17:00:00 24.8 13 Oeste 30 Oeste 0 -- -- 26
2019-09-29 16:00:00 24.8 14 Oeste 28 Oeste 0 -- -- 27
2019-09-29 15:00:00 23.9 17 Oeste 30 Oeste 0 -- -- 29
2019-09-29 14:00:00 23.2 15 Oeste 30 Sudoeste 0 -- -- 32
2019-09-29 13:00:00 22.2 18 Oeste 30 Oeste 0 -- -- 32
2019-09-29 12:00:00 21.2 10 Oeste 18 Sudoeste 0 -- -- 37
2019-09-29 11:00:00 19.2 9 Sur 14 Sur 0 -- -- 50
2019-09-29 10:00:00 14 0 Calma 6 Este 0 -- -- 87
2019-09-29 09:00:00 11.6 6 Este 10 Este 0 -- -- 91
2019-09-29 08:00:00 9.9 3 Este 10 Este 0 -- -- 92
2019-09-29 07:00:00 10.4 7 Este 10 Este 0 -- -- 93
2019-09-29 06:00:00 11.3 3 Sur 21 Sur 0 -- -- 90
2019-09-29 05:00:00 12.6 8 Sur 20 Sudoeste 0 -- -- 92
2019-09-29 04:00:00 13.8 7 Sudoeste 15 Sur 0 -- -- 92
2019-09-29 03:00:00 13.8 8 Sur 13 Sur 0 -- -- 96
2019-09-29 02:00:00 11.2 4 Este 10 Este 0 -- -- 98
2019-09-29 01:00:00 12.4 2 Sur 8 Este 0 -- -- 96
2019-09-29 00:00:00 13.9 4 Este 11 Sudoeste 0 -- -- 97
2019-09-28 23:00:00 14.7 6 Sudoeste 18 Sur 0 -- -- 95
2019-09-28 22:00:00 15.4 12 Sudeste 26 Sur 0 -- -- 93
2019-09-28 21:00:00 16 19 Sur 29 Sur 0 -- -- 92
2019-09-28 20:00:00 17 21 Sur 31 Sudeste 0 -- -- 85
2019-09-28 19:00:00 19.8 20 Sur 30 Sur 0 -- -- 70
2019-09-28 18:00:00 21.6 18 Sur 29 Sudeste 0 -- -- 56
2019-09-28 17:00:00 22 21 Sur 28 Sur 0 -- -- 51
2019-09-28 16:00:00 22.6 14 Sur 27 Sur 0 -- -- 46
2019-09-28 15:00:00 22.2 17 Sudeste 25 Sudeste 0 -- -- 45
2019-09-28 14:00:00 21.7 15 Sur 27 Sudeste 0 -- -- 43
2019-09-28 13:00:00 20.8 16 Sudeste 27 Sudeste 0 -- -- 49
2019-09-28 12:00:00 20.5 14 Sur 21 Sur 0 -- -- 42
2019-09-28 11:00:00 18.5 13 Sur 21 Sudeste 0 -- -- 61
2019-09-28 10:00:00 13 0 Calma 6 Este 0 -- -- 85
2019-09-28 09:00:00 9.9 0 Calma 5 Este 0 -- -- 91
2019-09-28 08:00:00 7.4 5 Este 11 Este 0 -- -- 95
2019-09-28 07:00:00 8.6 9 Este 13 Este 0 -- -- 92
2019-09-28 06:00:00 9.4 5 Este 8 Este 0 -- -- 91
2019-09-28 05:00:00 9.6 5 Nordeste 10 Este 0 -- -- 90
2019-09-28 04:00:00 10.2 3 Este 9 Este 0 -- -- 89
2019-09-28 03:00:00 10.7 6 Este 14 Este 0 -- -- 90
2019-09-28 02:00:00 12.1 8 Este 15 Este 0 -- -- 89
2019-09-28 01:00:00 14 5 Este 15 Sur 0 -- -- 91
2019-09-28 00:00:00 15.4 13 Sur 20 Sur 0 -- -- 94
2019-09-27 23:00:00 15.7 13 Sur 17 Sur 0 -- -- 92
2019-09-27 22:00:00 16.9 12 Sur 17 Sur 0 -- -- 84
2019-09-27 21:00:00 18.4 2 Sudeste 15 Sur 0 -- -- 77
2019-09-27 20:00:00 19.8 10 Sur 21 Sudeste 0 -- -- 69
2019-09-27 19:00:00 22.5 12 Sudoeste 17 Sudoeste 0 -- -- 41
2019-09-27 18:00:00 22.9 9 Sudoeste 21 Sudoeste 0 -- -- 42
2019-09-27 17:00:00 24.2 8 Oeste 22 Oeste 0 -- -- 36
2019-09-27 16:00:00 23.7 6 Oeste 26 Oeste 0 -- -- 39
2019-09-27 15:00:00 23 12 Oeste 23 Oeste 0 -- -- 38
2019-09-27 14:00:00 22.6 12 Noroeste 21 Oeste 0 -- -- 39
2019-09-27 13:00:00 21.3 11 Oeste 23 Oeste 0 -- -- 44
2019-09-27 12:00:00 21 6 Este 16 Sudeste 0 -- -- 47
2019-09-27 11:00:00 19.1 6 Nordeste 9 Nordeste 0 -- -- 55
2019-09-27 10:00:00 14.1 0 Calma 5 Este 0 -- -- 80
2019-09-27 09:00:00 10.8 4 Este 5 Este 0 -- -- 87
2019-09-27 08:00:00 8.4 5 Este 9 Este 0 -- -- 92
2019-09-27 07:00:00 8.7 0 Calma 9 Este 0 -- -- 92
2019-09-27 06:00:00 9 7 Este 12 Este 0 -- -- 90
2019-09-27 05:00:00 10.3 9 Este 11 Sudeste 0 -- -- 86
2019-09-27 04:00:00 11.1 2 Este 4 Oeste 0 -- -- 86
2019-09-27 03:00:00 10.9 0 Calma 15 Este 0 -- -- 88
2019-09-27 02:00:00 12 10 Este 13 Este 0 -- -- 85
2019-09-27 01:00:00 13.8 6 Sudeste 12 Este 0 -- -- 84
2019-09-27 00:00:00 14.8 4 Sur 13 Sur 0 -- -- 86
2019-09-26 23:00:00 15.5 7 Sur 13 Sur 0 -- -- 91
2019-09-26 22:00:00 15.7 11 Sur 16 Sur 0 -- -- 88
2019-09-26 21:00:00 16.8 13 Sur 20 Sur 0 -- -- 77
2019-09-26 20:00:00 19.2 12 Sur 18 Sur 0 -- -- 58
2019-09-26 19:00:00 22.4 12 Sur 24 Sudoeste 0 -- -- 45
2019-09-26 18:00:00 23.4 9 Sudoeste 19 Oeste 0 -- -- 37
2019-09-26 17:00:00 23.1 14 Oeste 22 Oeste 0 -- -- 36
2019-09-26 16:00:00 23 9 Sudoeste 22 Sudoeste 0 -- -- 36
2019-09-26 15:00:00 22.6 9 Oeste 20 Sudoeste 0 -- -- 40
2019-09-26 14:00:00 21 8 Oeste 19 Oeste 0 -- -- 41
2019-09-26 13:00:00 20 11 Sudeste 22 Sur 0 -- -- 49
2019-09-26 12:00:00 18.8 11 Sur 17 Sur 0 -- -- 53
2019-09-26 11:00:00 16.8 9 Sur 14 Sudoeste 0 -- -- 61
2019-09-26 10:00:00 13.8 2 Nordeste 5 Nordeste 0 -- -- 72
2019-09-26 09:00:00 10.2 0 Calma 5 Este 0 -- -- 83
2019-09-26 08:00:00 7.6 0 Calma 4 Nordeste 0 -- -- 89
2019-09-26 07:00:00 8.1 4 Nordeste 7 Nordeste 0 -- -- 87
2019-09-26 06:00:00 8.1 0 Calma 7 Este 0 -- -- 86
2019-09-26 05:00:00 8.8 6 Nordeste 10 Nordeste 0 -- -- 84
2019-09-26 04:00:00 8.5 3 Nordeste 9 Este 0 -- -- 85
2019-09-26 03:00:00 9.3 5 Este 13 Este 0 -- -- 81
2019-09-26 02:00:00 9.9 7 Este 10 Este 0 -- -- 79
2019-09-26 01:00:00 10.8 10 Este 12 Este 0 -- -- 75
2019-09-26 00:00:00 11.5 5 Este 12 Este 0 -- -- 72
2019-09-25 23:00:00 12.1 8 Este 10 Este 0 -- -- 75
2019-09-25 22:00:00 13.5 5 Norte 20 Noroeste 0 -- -- 63
2019-09-25 21:00:00 14.8 12 Noroeste 15 Noroeste 0 -- -- 55
2019-09-25 20:00:00 16.3 5 Noroeste 13 Oeste 0 -- -- 54
2019-09-25 19:00:00 18 7 Noroeste 18 Oeste 0 -- -- 49
2019-09-25 18:00:00 19.3 9 Noroeste 21 Noroeste 0 -- -- 46
2019-09-25 17:00:00 19.3 12 Oeste 19 Oeste 0 -- -- 47
2019-09-25 16:00:00 18.9 9 Oeste 19 Noroeste 0 -- -- 50
2019-09-25 15:00:00 18.2 10 Noroeste 20 Noroeste 0 -- -- 51
2019-09-25 14:00:00 16.8 12 Noroeste 20 Noroeste 0 -- -- 55
2019-09-25 13:00:00 15.4 12 Oeste 21 Noroeste 0 -- -- 61
2019-09-25 12:00:00 15 14 Noroeste 23 Noroeste 0 -- -- 67
2019-09-25 11:00:00 14 13 Noroeste 23 Noroeste 0 -- -- 73
2019-09-25 10:00:00 12.3 16 Norte 23 Norte 0 -- -- 78
2019-09-25 09:00:00 11.2 9 Norte 17 Nordeste 0 -- -- 83
2019-09-25 08:00:00 11 8 Norte 17 Noroeste 0 -- -- 86
2019-09-25 07:00:00 12 10 Norte 21 Noroeste 0 -- -- 88
2019-09-25 06:00:00 12.9 13 Noroeste 24 Noroeste 0 -- -- 84
2019-09-25 05:00:00 14.3 18 Noroeste 29 Noroeste 0 -- -- 82
2019-09-25 04:00:00 12.8 10 Oeste 16 Noroeste 0 -- -- 85
2019-09-25 03:00:00 12.9 3 Sudeste 9 Este 0 -- -- 83
2019-09-25 02:00:00 13.1 4 Sudeste 9 Este 0 -- -- 79
2019-09-25 01:00:00 14.2 5 Sudeste 8 Sudeste 0 -- -- 73
2019-09-25 00:00:00 14.8 5 Sur 11 Nordeste 0 -- -- 68
2019-09-24 23:00:00 15.7 4 Sudeste 10 Este 0 -- -- 63
2019-09-24 22:00:00 16.4 4 Noroeste 9 Oeste 0 -- -- 63
2019-09-24 21:00:00 17.7 5 Oeste 21 Oeste 0 -- -- 60
2019-09-24 20:00:00 19.8 13 Oeste 24 Oeste 0 -- -- 51
2019-09-24 19:00:00 22.4 17 Oeste 28 Oeste 0 -- -- 40
2019-09-24 18:00:00 23.6 17 Oeste 27 Oeste 0 -- -- 33
2019-09-24 17:00:00 23.9 11 Noroeste 23 Oeste 0 -- -- 34
2019-09-24 16:00:00 23.2 13 Noroeste 26 Oeste 0 -- -- 36
2019-09-24 15:00:00 22.5 18 Oeste 32 Oeste 0 -- -- 36
2019-09-24 14:00:00 21.8 16 Oeste 24 Oeste 0 -- -- 39
2019-09-24 13:00:00 20.9 10 Sudoeste 27 Oeste 0 -- -- 38
2019-09-24 12:00:00 20 15 Oeste 28 Oeste 0 -- -- 36
2019-09-24 11:00:00 19.1 5 Sudoeste 16 Sudoeste 0 -- -- 42
2019-09-24 10:00:00 17.1 5 Sudoeste 13 Sudoeste 0 -- -- 51
2019-09-24 09:00:00 13.9 8 Sudoeste 17 Sudoeste 0 -- -- 59
2019-09-24 08:00:00 9.2 4 Nordeste 12 Sudoeste 0 -- -- 81
2019-09-24 07:00:00 8 6 Nordeste 12 Nordeste 0 -- -- 89
2019-09-24 06:00:00 8 7 Este 11 Este 0 -- -- 89
2019-09-24 05:00:00 8.5 6 Este 10 Este 0 -- -- 89
2019-09-24 04:00:00 8.9 5 Este 9 Este 0 -- -- 90
2019-09-24 03:00:00 9.3 2 Sudeste 11 Este 0 -- -- 89
2019-09-24 02:00:00 9.7 3 Este 9 Este 0 -- -- 91
2019-09-24 01:00:00 10.1 7 Este 11 Este 0 -- -- 89
2019-09-24 00:00:00 11.1 5 Este 8 Este 0 -- -- 87
2019-09-23 23:00:00 12 5 Este 10 Este 0 -- -- 84
2019-09-23 22:00:00 13.1 8 Sudeste 12 Este 0 -- -- 81
2019-09-23 21:00:00 15 4 Oeste 5 Oeste 0 -- -- 72
2019-09-23 20:00:00 16.8 2 Oeste 10 Oeste 0 -- -- 60
2019-09-23 19:00:00 18.5 6 Oeste 19 Sudoeste 0 -- -- 52
2019-09-23 18:00:00 18.9 11 Sudoeste 23 Sudoeste 0 -- -- 51
2019-09-23 17:00:00 19.7 10 Oeste 19 Oeste 0 -- -- 48
2019-09-23 16:00:00 19.6 10 Oeste 19 Oeste 0 -- -- 42
2019-09-23 15:00:00 17.7 8 Oeste 21 Oeste 0 -- -- 44
2019-09-23 14:00:00 17.7 13 Sudeste 21 Sur 0 -- -- 55
2019-09-23 13:00:00 17 7 Sur 19 Este 0 -- -- 57
2019-09-23 12:00:00 15.3 3 Noroeste 10 Sur 0.2 -- -- 58
2019-09-23 11:00:00 14.1 3 Norte 6 Norte 0 -- -- 62
2019-09-23 10:00:00 11 0 Calma 5 Oeste 0 -- -- 84
2019-09-23 09:00:00 8.6 2 Nordeste 10 Este 0 -- -- 90
2019-09-23 08:00:00 5.6 4 Este 11 Sudeste 0 -- -- 96
2019-09-23 07:00:00 6.2 6 Este 9 Sudeste 0 -- -- 95
2019-09-23 06:00:00 6.8 5 Este 8 Este 0 -- -- 92
2019-09-23 05:00:00 7.2 4 Este 12 Este 0 -- -- 92
2019-09-23 04:00:00 7.8 7 Este 8 Nordeste 0 -- -- 89
2019-09-23 03:00:00 8.6 6 Nordeste 10 Nordeste 0 -- -- 87
2019-09-23 02:00:00 9.2 5 Norte 7 Norte 0 -- -- 86
2019-09-23 01:00:00 10.1 5 Nordeste 19 Norte 0 -- -- 83
2019-09-23 00:00:00 11.8 12 Noroeste 20 Noroeste 0 -- -- 74
2019-09-22 23:00:00 11.7 6 Norte 18 Noroeste 0 -- -- 85
2019-09-22 22:00:00 12.6 7 Noroeste 14 Noroeste 0 -- -- 93
2019-09-22 21:00:00 13.4 9 Oeste 17 Oeste 0 -- -- 86
2019-09-22 20:00:00 14 6 Sur 18 Sudoeste 0 -- -- 91
2019-09-22 19:00:00 14.6 16 Sudoeste 23 Sudoeste 0 -- -- 91
2019-09-22 18:00:00 15 6 Sudoeste 21 Noroeste 1.2 -- -- 88
2019-09-22 17:00:00 15.3 18 Noroeste 33 Sudoeste 0.4 -- -- 86
2019-09-22 16:00:00 19.6 23 Sudoeste 39 Sudoeste 0 -- -- 59
2019-09-22 15:00:00 19.2 23 Sudoeste 36 Oeste 0 -- -- 61
2019-09-22 14:00:00 18.2 16 Sudoeste 24 Sur 0 -- -- 67
2019-09-22 13:00:00 16.6 16 Sudoeste 34 Sudoeste 0 -- -- 74
2019-09-22 12:00:00 16.6 23 Sudoeste 37 Sudoeste 0 -- -- 72
2019-09-22 11:00:00 16.3 17 Sudoeste 30 Sudoeste 0 -- -- 74
2019-09-22 10:00:00 14.8 7 Sur 27 Sur 0 -- -- 82
2019-09-22 09:00:00 12.7 18 Sur 30 Sur 0 -- -- 88
2019-09-22 08:00:00 12.3 9 Sur 19 Sur 0 -- -- 90
2019-09-22 07:00:00 12.6 13 Sur 25 Sur 0 -- -- 89
2019-09-22 06:00:00 13 16 Sur 28 Sudoeste 0 -- -- 87
2019-09-22 05:00:00 13.4 19 Sur 32 Sur 0 -- -- 87
2019-09-22 04:00:00 13.5 14 Sur 25 Sur 0 -- -- 86
2019-09-22 03:00:00 13.8 12 Sur 26 Sur 0 -- -- 85
2019-09-22 02:00:00 14.4 13 Sur 26 Sur 0 -- -- 87
2019-09-22 01:00:00 14.2 15 Sur 24 Sur 0 -- -- 86
2019-09-22 00:00:00 14.4 13 Sur 22 Sur 0 -- -- 84
2019-09-21 23:00:00 14.9 10 Sur 17 Sur 0 -- -- 81
2019-09-21 22:00:00 15.6 8 Sur 23 Sudoeste 0 -- -- 77
2019-09-21 21:00:00 16 14 Sudoeste 23 Sudoeste 0 -- -- 72
2019-09-21 20:00:00 16.6 10 Sudoeste 22 Sudoeste 0 -- -- 70
2019-09-21 19:00:00 17.7 17 Sudoeste 28 Sur 0 -- -- 65
2019-09-21 18:00:00 18.3 17 Sudoeste 27 Sudoeste 0 -- -- 63
2019-09-21 17:00:00 18.4 19 Sudoeste 30 Sudoeste 0 -- -- 62
2019-09-21 16:00:00 18.3 22 Sudoeste 33 Sudoeste 0 -- -- 60
2019-09-21 15:00:00 18.4 20 Sudoeste 34 Sudoeste 0 -- -- 55
2019-09-21 14:00:00 18.2 19 Sudoeste 30 Sudoeste 0 -- -- 62
2019-09-21 13:00:00 17.5 12 Sudoeste 23 Sudoeste 0 -- -- 69
2019-09-21 12:00:00 16.5 13 Sudoeste 24 Sudoeste 0 -- -- 72
2019-09-21 11:00:00 14.9 11 Sudoeste 17 Sur 0 -- -- 79
2019-09-21 10:00:00 12.4 16 Sur 26 Sur 0 -- -- 86
2019-09-21 09:00:00 11.4 10 Sur 23 Sudeste 3.6 -- -- 92
2019-09-21 08:00:00 11.2 13 Sudeste 23 Sur 2 -- -- 94
2019-09-21 07:00:00 11.2 3 Sudeste 15 Sudeste 0.6 -- -- 96
2019-09-21 06:00:00 11.4 9 Sudeste 14 Sur 1.6 -- -- 98
2019-09-21 05:00:00 11.4 4 Sudoeste 20 Sur 2.2 -- -- 98
2019-09-21 04:00:00 11.6 15 Sur 21 Sur 2.2 -- -- 97
2019-09-21 03:00:00 12 5 Sudeste 14 Sudeste 0.6 -- -- 97
2019-09-21 02:00:00 12.1 8 Sur 31 Sudoeste 2.8 -- -- 96
2019-09-21 01:00:00 13.4 18 Sur 37 Sudeste 0 -- -- 94
2019-09-21 00:00:00 13.9 25 Sudeste 37 Sur 0 -- -- 93
2019-09-20 23:00:00 14.2 17 Sudeste 37 Sur 0 -- -- 95
2019-09-20 22:00:00 14 16 Sudeste 35 Sudeste 0 -- -- 94
2019-09-20 21:00:00 14.1 24 Sudeste 36 Sudeste 0 -- -- 92
2019-09-20 20:00:00 14.8 21 Sudeste 37 Sudeste 0 -- -- 88
2019-09-20 19:00:00 15.6 22 Sudeste 37 Sur 0 -- -- 86
2019-09-20 18:00:00 16.1 28 Sudeste 43 Sudeste 0 -- -- 85
2019-09-20 17:00:00 17.6 22 Sudeste 36 Sudeste 0 -- -- 79
2019-09-20 16:00:00 18 25 Sudeste 42 Sudeste 0 -- -- 73
2019-09-20 15:00:00 18.5 24 Sudeste 40 Sudeste 0 -- -- 67
2019-09-20 14:00:00 17.9 23 Sudeste 38 Sudeste 0 -- -- 72
2019-09-20 13:00:00 18 17 Sudeste 27 Sur 0 -- -- 75
2019-09-20 12:00:00 15.8 13 Sudeste 29 Sur 0 -- -- 82
2019-09-20 11:00:00 14.6 15 Sudeste 35 Sur 0 -- -- 87
2019-09-20 10:00:00 13.5 23 Sur 34 Sur 0 -- -- 93
2019-09-20 09:00:00 12.5 12 Sur 29 Sur 0 -- -- 97
2019-09-20 08:00:00 12.2 10 Sudeste 22 Sudeste 0 -- -- 100
2019-09-20 07:00:00 12 4 Sudeste 13 Sur 0 -- -- 99
2019-09-20 06:00:00 12.7 8 Sur 14 Sudeste 0 -- -- 99
2019-09-20 05:00:00 13.1 9 Sudeste 18 Sudeste 0 -- -- 99
2019-09-20 04:00:00 13.3 9 Sudeste 17 Sur 0 -- -- 99
2019-09-20 03:00:00 13.6 9 Sudeste 15 Sudeste 0 -- -- 97
2019-09-20 02:00:00 13.5 9 Sudeste 14 Sudeste 0 -- -- 99
2019-09-20 01:00:00 12.5 3 Sudeste 7 Sudoeste 0 -- -- 92
2019-09-20 00:00:00 13.3 5 Este 17 Este 0.4 -- -- 91